sensor_id;sensor_type;location;lat;lon;timestamp;pressure;altitude;pressure_sealevel;temperature;humidity
12757;BME280;31601;48.042;12.240;2023-03-20T00:00:06;96356.09;;;10.74;69.21
12757;BME280;31601;48.042;12.240;2023-03-20T00:02:35;96360.25;;;10.68;69.33
12757;BME280;31601;48.042;12.240;2023-03-20T00:05:11;96362.13;;;10.60;69.86
12757;BME280;31601;48.042;12.240;2023-03-20T00:07:40;96357.88;;;10.59;70.01
12757;BME280;31601;48.042;12.240;2023-03-20T00:10:09;96354.72;;;10.63;69.98
12757;BME280;31601;48.042;12.240;2023-03-20T00:12:36;96360.97;;;10.62;69.72
12757;BME280;31601;48.042;12.240;2023-03-20T00:15:06;96366.66;;;10.66;70.14
12757;BME280;31601;48.042;12.240;2023-03-20T00:17:33;96369.38;;;10.72;69.82
12757;BME280;31601;48.042;12.240;2023-03-20T00:19:59;96367.19;;;10.76;69.65
12757;BME280;31601;48.042;12.240;2023-03-20T00:22:26;96360.41;;;10.82;69.52
12757;BME280;31601;48.042;12.240;2023-03-20T00:24:53;96362.88;;;10.83;69.71
12757;BME280;31601;48.042;12.240;2023-03-20T00:27:23;96362.31;;;10.88;69.55
12757;BME280;31601;48.042;12.240;2023-03-20T00:29:50;96363.75;;;10.90;69.46
12757;BME280;31601;48.042;12.240;2023-03-20T00:32:16;96359.16;;;10.92;69.54
12757;BME280;31601;48.042;12.240;2023-03-20T00:34:43;96361.13;;;10.90;69.75
12757;BME280;31601;48.042;12.240;2023-03-20T00:37:10;96362.03;;;10.98;69.49
12757;BME280;31601;48.042;12.240;2023-03-20T00:39:36;96365.47;;;10.98;69.50
12757;BME280;31601;48.042;12.240;2023-03-20T00:42:04;96355.59;;;11.00;69.40
12757;BME280;31601;48.042;12.240;2023-03-20T00:44:35;96367.66;;;10.95;69.51
12757;BME280;31601;48.042;12.240;2023-03-20T00:47:04;96370.09;;;10.96;69.29
12757;BME280;31601;48.042;12.240;2023-03-20T00:49:33;96364.03;;;10.96;69.41
12757;BME280;31601;48.042;12.240;2023-03-20T00:52:00;96369.47;;;10.94;69.42
12757;BME280;31601;48.042;12.240;2023-03-20T00:54:28;96376.13;;;10.97;69.41
12757;BME280;31601;48.042;12.240;2023-03-20T00:56:57;96376.13;;;10.97;69.39
12757;BME280;31601;48.042;12.240;2023-03-20T00:59:27;96375.78;;;11.00;69.41
12757;BME280;31601;48.042;12.240;2023-03-20T01:01:55;96372.78;;;11.03;69.21
12757;BME280;31601;48.042;12.240;2023-03-20T01:04:22;96372.78;;;11.03;69.30
12757;BME280;31601;48.042;12.240;2023-03-20T01:06:49;96376.25;;;11.03;69.18
12757;BME280;31601;48.042;12.240;2023-03-20T01:09:16;96373.81;;;11.02;69.36
12757;BME280;31601;48.042;12.240;2023-03-20T01:11:43;96373.44;;;11.05;69.33
12757;BME280;31601;48.042;12.240;2023-03-20T01:14:12;96367.34;;;11.04;69.46
12757;BME280;31601;48.042;12.240;2023-03-20T01:16:40;96372.25;;;11.07;69.10
12757;BME280;31601;48.042;12.240;2023-03-20T01:19:10;96372.41;;;11.06;69.14
12757;BME280;31601;48.042;12.240;2023-03-20T01:21:38;96370.44;;;11.08;69.40
12757;BME280;31601;48.042;12.240;2023-03-20T01:24:04;96371.63;;;11.05;69.13
12757;BME280;31601;48.042;12.240;2023-03-20T01:26:34;96372.88;;;11.09;69.14
12757;BME280;31601;48.042;12.240;2023-03-20T01:29:01;96371.44;;;11.07;69.17
12757;BME280;31601;48.042;12.240;2023-03-20T01:31:28;96381.56;;;11.10;69.05
12757;BME280;31601;48.042;12.240;2023-03-20T01:33:55;96372.25;;;11.07;68.95
12757;BME280;31601;48.042;12.240;2023-03-20T01:36:23;96369.59;;;11.07;68.89
12757;BME280;31601;48.042;12.240;2023-03-20T01:38:53;96376.06;;;11.05;68.96
12757;BME280;31601;48.042;12.240;2023-03-20T01:41:21;96369.78;;;11.06;68.80
12757;BME280;31601;48.042;12.240;2023-03-20T01:43:48;96375.03;;;11.06;68.96
12757;BME280;31601;48.042;12.240;2023-03-20T01:46:18;96369.78;;;11.06;68.80
12757;BME280;31601;48.042;12.240;2023-03-20T01:48:58;96374.25;;;11.05;68.99
12757;BME280;31601;48.042;12.240;2023-03-20T01:51:27;96371.81;;;11.04;69.15
12757;BME280;31601;48.042;12.240;2023-03-20T01:53:58;96368.38;;;11.03;69.12
12757;BME280;31601;48.042;12.240;2023-03-20T01:56:27;96373.81;;;11.02;69.02
12757;BME280;31601;48.042;12.240;2023-03-20T01:58:59;96376.97;;;10.97;69.15
12757;BME280;31601;48.042;12.240;2023-03-20T02:01:28;96373.81;;;11.02;69.01
12757;BME280;31601;48.042;12.240;2023-03-20T02:03:55;96372.78;;;11.03;68.99
12757;BME280;31601;48.042;12.240;2023-03-20T02:06:23;96371.81;;;11.04;69.07
12757;BME280;31601;48.042;12.240;2023-03-20T02:08:52;96364.91;;;11.03;69.13
12757;BME280;31601;48.042;12.240;2023-03-20T02:11:21;96369.53;;;11.01;68.96
12757;BME280;31601;48.042;12.240;2023-03-20T02:13:49;96371.19;;;11.02;68.92
12757;BME280;31601;48.042;12.240;2023-03-20T02:16:16;96372.16;;;11.01;68.85
12757;BME280;31601;48.042;12.240;2023-03-20T02:18:44;96369.28;;;10.96;69.07
12757;BME280;31601;48.042;12.240;2023-03-20T02:21:40;96366.00;;;10.93;69.18
12757;BME280;31601;48.042;12.240;2023-03-20T02:24:39;96367.56;;;10.88;69.40
12757;BME280;31601;48.042;12.240;2023-03-20T02:27:17;96370.28;;;10.95;69.14
12757;BME280;31601;48.042;12.240;2023-03-20T02:30:31;96373.63;;;10.88;69.23
12757;BME280;31601;48.042;12.240;2023-03-20T02:33:36;96366.84;;;10.79;69.42
12757;BME280;31601;48.042;12.240;2023-03-20T02:36:38;96370.75;;;10.83;69.59
12757;BME280;31601;48.042;12.240;2023-03-20T02:39:35;96372.81;;;10.88;69.22
12757;BME280;31601;48.042;12.240;2023-03-20T02:42:10;96374.09;;;10.77;69.57
12757;BME280;31601;48.042;12.240;2023-03-20T02:44:45;96365.31;;;10.70;69.80
12757;BME280;31601;48.042;12.240;2023-03-20T02:47:18;96370.19;;;10.73;69.82
12757;BME280;31601;48.042;12.240;2023-03-20T02:49:53;96361.50;;;10.72;69.89
12757;BME280;31601;48.042;12.240;2023-03-20T02:52:27;96358.97;;;10.79;69.70
12757;BME280;31601;48.042;12.240;2023-03-20T02:55:07;96363.41;;;10.79;69.71
12757;BME280;31601;48.042;12.240;2023-03-20T02:57:43;96357.69;;;10.75;69.96
12757;BME280;31601;48.042;12.240;2023-03-20T03:00:14;96364.66;;;10.83;69.63
12757;BME280;31601;48.042;12.240;2023-03-20T03:02:50;96368.75;;;10.85;69.66
12757;BME280;31601;48.042;12.240;2023-03-20T03:05:21;96364.84;;;10.81;69.70
12757;BME280;31601;48.042;12.240;2023-03-20T03:07:51;96361.41;;;10.81;69.76
12757;BME280;31601;48.042;12.240;2023-03-20T03:10:24;96370.38;;;10.86;69.54
12757;BME280;31601;48.042;12.240;2023-03-20T03:12:54;96367.56;;;10.88;69.70
12757;BME280;31601;48.042;12.240;2023-03-20T03:15:26;96364.75;;;10.89;69.70
12757;BME280;31601;48.042;12.240;2023-03-20T03:17:55;96363.75;;;10.90;69.62
12757;BME280;31601;48.042;12.240;2023-03-20T03:20:25;96367.38;;;10.89;69.65
12757;BME280;31601;48.042;12.240;2023-03-20T03:22:53;96368.00;;;10.91;69.60
12757;BME280;31601;48.042;12.240;2023-03-20T03:25:24;96367.03;;;10.92;69.62
12757;BME280;31601;48.042;12.240;2023-03-20T03:27:55;96367.94;;;10.85;69.74
12757;BME280;31601;48.042;12.240;2023-03-20T03:30:26;96370.19;;;10.88;69.52
12757;BME280;31601;48.042;12.240;2023-03-20T03:33:07;96364.66;;;10.83;69.70
12757;BME280;31601;48.042;12.240;2023-03-20T03:35:35;96374.59;;;10.87;69.30
12757;BME280;31601;48.042;12.240;2023-03-20T03:38:09;96370.81;;;10.90;69.25
12757;BME280;31601;48.042;12.240;2023-03-20T03:40:43;96377.88;;;10.89;69.18
12757;BME280;31601;48.042;12.240;2023-03-20T03:43:15;96379.31;;;10.92;69.04
12757;BME280;31601;48.042;12.240;2023-03-20T03:45:45;96378.50;;;10.91;69.06
12757;BME280;31601;48.042;12.240;2023-03-20T03:48:17;96381.13;;;10.91;69.26
12757;BME280;31601;48.042;12.240;2023-03-20T03:50:49;96382.97;;;10.91;69.22
12757;BME280;31601;48.042;12.240;2023-03-20T03:53:19;96385.41;;;10.92;69.35
12757;BME280;31601;48.042;12.240;2023-03-20T03:55:52;96380.41;;;10.98;69.02
12757;BME280;31601;48.042;12.240;2023-03-20T03:58:23;96387.00;;;10.93;69.24
12757;BME280;31601;48.042;12.240;2023-03-20T04:00:54;96388.03;;;10.92;69.04
12757;BME280;31601;48.042;12.240;2023-03-20T04:03:27;96389.13;;;10.83;69.36
12757;BME280;31601;48.042;12.240;2023-03-20T04:05:55;96390.72;;;10.84;69.45
12757;BME280;31601;48.042;12.240;2023-03-20T04:08:23;96399.88;;;10.88;69.23
12757;BME280;31601;48.042;12.240;2023-03-20T04:10:51;96398.78;;;10.98;69.07
12757;BME280;31601;48.042;12.240;2023-03-20T04:13:17;96400.31;;;10.92;69.04
12757;BME280;31601;48.042;12.240;2023-03-20T04:15:44;96404.94;;;10.90;69.02
12757;BME280;31601;48.042;12.240;2023-03-20T04:18:14;96406.84;;;10.96;68.84
12757;BME280;31601;48.042;12.240;2023-03-20T04:20:41;96401.59;;;10.96;68.94
12757;BME280;31601;48.042;12.240;2023-03-20T04:23:08;96407.66;;;10.97;68.93
12757;BME280;31601;48.042;12.240;2023-03-20T04:25:34;96407.66;;;10.97;68.85
12757;BME280;31601;48.042;12.240;2023-03-20T04:28:03;96409.09;;;10.99;68.94
12757;BME280;31601;48.042;12.240;2023-03-20T04:30:29;96416.78;;;11.01;68.97
12757;BME280;31601;48.042;12.240;2023-03-20T04:32:56;96417.78;;;11.00;68.72
12757;BME280;31601;48.042;12.240;2023-03-20T04:35:24;96418.16;;;10.97;68.84
12757;BME280;31601;48.042;12.240;2023-03-20T04:37:50;96417.44;;;10.88;69.27
12757;BME280;31601;48.042;12.240;2023-03-20T04:40:16;96421.97;;;10.94;69.17
12757;BME280;31601;48.042;12.240;2023-03-20T04:42:43;96423.41;;;10.97;69.10
12757;BME280;31601;48.042;12.240;2023-03-20T04:45:11;96417.53;;;10.95;69.13
12757;BME280;31601;48.042;12.240;2023-03-20T04:47:37;96426.69;;;10.99;69.27
12757;BME280;31601;48.042;12.240;2023-03-20T04:50:05;96428.81;;;10.95;69.22
12757;BME280;31601;48.042;12.240;2023-03-20T04:52:31;96428.81;;;10.95;69.21
12757;BME280;31601;48.042;12.240;2023-03-20T04:54:58;96436.06;;;10.93;69.34
12757;BME280;31601;48.042;12.240;2023-03-20T04:57:24;96431.94;;;10.99;69.33
12757;BME280;31601;48.042;12.240;2023-03-20T04:59:51;96432.91;;;10.98;69.28
12757;BME280;31601;48.042;12.240;2023-03-20T05:02:18;96438.53;;;10.95;69.41
12757;BME280;31601;48.042;12.240;2023-03-20T05:04:45;96441.31;;;10.93;69.34
12757;BME280;31601;48.042;12.240;2023-03-20T05:07:11;96437.16;;;10.99;69.12
12757;BME280;31601;48.042;12.240;2023-03-20T05:09:38;96441.50;;;10.91;69.43
12757;BME280;31601;48.042;12.240;2023-03-20T05:12:05;96442.25;;;11.00;69.52
12757;BME280;31601;48.042;12.240;2023-03-20T05:14:31;96441.16;;;10.95;69.44
12757;BME280;31601;48.042;12.240;2023-03-20T05:16:57;96441.41;;;11.00;69.55
12757;BME280;31601;48.042;12.240;2023-03-20T05:19:25;96443.69;;;10.88;70.00
12757;BME280;31601;48.042;12.240;2023-03-20T05:21:52;96447.91;;;10.89;70.10
12757;BME280;31601;48.042;12.240;2023-03-20T05:24:18;96447.75;;;10.90;69.89
12757;BME280;31601;48.042;12.240;2023-03-20T05:26:45;96449.66;;;10.97;69.84
12757;BME280;31601;48.042;12.240;2023-03-20T05:29:12;96452.38;;;10.88;69.83
12757;BME280;31601;48.042;12.240;2023-03-20T05:31:39;96458.53;;;10.96;69.64
12757;BME280;31601;48.042;12.240;2023-03-20T05:34:05;96458.41;;;10.89;69.65
12757;BME280;31601;48.042;12.240;2023-03-20T05:36:33;96460.41;;;10.87;69.89
12757;BME280;31601;48.042;12.240;2023-03-20T05:38:59;96459.63;;;10.86;69.94
12757;BME280;31601;48.042;12.240;2023-03-20T05:41:26;96461.22;;;10.87;69.75
12757;BME280;31601;48.042;12.240;2023-03-20T05:43:52;96461.41;;;10.71;70.37
12757;BME280;31601;48.042;12.240;2023-03-20T05:46:18;96462.97;;;10.80;69.81
12757;BME280;31601;48.042;12.240;2023-03-20T05:48:45;96468.03;;;10.82;69.92
12757;BME280;31601;48.042;12.240;2023-03-20T05:51:11;96466.38;;;10.81;69.83
12757;BME280;31601;48.042;12.240;2023-03-20T05:53:39;96467.66;;;10.85;69.89
12757;BME280;31601;48.042;12.240;2023-03-20T05:56:06;96466.28;;;10.74;70.11
12757;BME280;31601;48.042;12.240;2023-03-20T05:58:33;96476.16;;;10.87;69.86
12757;BME280;31601;48.042;12.240;2023-03-20T06:01:00;96470.38;;;10.91;69.51
12757;BME280;31601;48.042;12.240;2023-03-20T06:03:27;96482.25;;;11.02;69.28
12757;BME280;31601;48.042;12.240;2023-03-20T06:05:53;96482.88;;;11.04;69.27
12757;BME280;31601;48.042;12.240;2023-03-20T06:08:20;96480.72;;;11.08;68.97
12757;BME280;31601;48.042;12.240;2023-03-20T06:10:49;96487.69;;;11.01;68.95
12757;BME280;31601;48.042;12.240;2023-03-20T06:13:15;96490.47;;;10.99;69.07
12757;BME280;31601;48.042;12.240;2023-03-20T06:15:42;96487.13;;;10.90;69.27
12757;BME280;31601;48.042;12.240;2023-03-20T06:18:08;96485.78;;;11.09;68.69
12757;BME280;31601;48.042;12.240;2023-03-20T06:20:35;96491.41;;;11.06;68.94
12757;BME280;31601;48.042;12.240;2023-03-20T06:23:01;96496.81;;;11.20;68.61
12757;BME280;31601;48.042;12.240;2023-03-20T06:25:28;96507.06;;;11.15;68.57
12757;BME280;31601;48.042;12.240;2023-03-20T06:27:55;96499.81;;;11.17;68.36
12757;BME280;31601;48.042;12.240;2023-03-20T06:30:22;96504.63;;;11.13;68.79
12757;BME280;31601;48.042;12.240;2023-03-20T06:32:49;96502.00;;;11.13;68.65
12757;BME280;31601;48.042;12.240;2023-03-20T06:35:15;96509.06;;;11.13;68.48
12757;BME280;31601;48.042;12.240;2023-03-20T06:37:42;96514.22;;;11.21;68.27
12757;BME280;31601;48.042;12.240;2023-03-20T06:40:10;96510.59;;;11.22;68.03
12757;BME280;31601;48.042;12.240;2023-03-20T06:42:36;96516.31;;;11.25;67.84
12757;BME280;31601;48.042;12.240;2023-03-20T06:45:05;96512.59;;;11.20;67.92
12757;BME280;31601;48.042;12.240;2023-03-20T06:47:32;96515.75;;;11.15;68.07
12757;BME280;31601;48.042;12.240;2023-03-20T06:49:58;96518.56;;;11.14;68.19
12757;BME280;31601;48.042;12.240;2023-03-20T06:52:25;96524.38;;;11.24;67.96
12757;BME280;31601;48.042;12.240;2023-03-20T06:54:51;96527.88;;;11.16;67.97
12757;BME280;31601;48.042;12.240;2023-03-20T06:57:17;96529.25;;;11.27;67.73
12757;BME280;31601;48.042;12.240;2023-03-20T06:59:44;96532.69;;;11.27;67.81
12757;BME280;31601;48.042;12.240;2023-03-20T07:02:12;96527.53;;;11.19;67.92
12757;BME280;31601;48.042;12.240;2023-03-20T07:04:38;96536.78;;;11.30;67.61
12757;BME280;31601;48.042;12.240;2023-03-20T07:07:05;96529.34;;;11.34;67.38
12757;BME280;31601;48.042;12.240;2023-03-20T07:09:31;96537.41;;;11.32;67.61
12757;BME280;31601;48.042;12.240;2023-03-20T07:11:58;96534.69;;;11.25;67.99
12757;BME280;31601;48.042;12.240;2023-03-20T07:14:24;96544.28;;;11.33;68.14
12757;BME280;31601;48.042;12.240;2023-03-20T07:16:51;96543.94;;;11.36;68.17
12757;BME280;31601;48.042;12.240;2023-03-20T07:19:19;96541.13;;;11.38;67.80
12757;BME280;31601;48.042;12.240;2023-03-20T07:21:45;96545.47;;;11.45;67.89
12757;BME280;31601;48.042;12.240;2023-03-20T07:24:12;96544.91;;;11.35;68.42
12757;BME280;31601;48.042;12.240;2023-03-20T07:26:39;96543.03;;;11.44;68.13
12757;BME280;31601;48.042;12.240;2023-03-20T07:29:05;96541.38;;;11.43;68.53
12757;BME280;31601;48.042;12.240;2023-03-20T07:31:32;96540.75;;;11.41;68.55
12757;BME280;31601;48.042;12.240;2023-03-20T07:33:58;96540.75;;;11.41;68.55
12757;BME280;31601;48.042;12.240;2023-03-20T07:36:26;96550.00;;;11.37;68.75
12757;BME280;31601;48.042;12.240;2023-03-20T07:38:53;96544.38;;;11.40;68.90
12757;BME280;31601;48.042;12.240;2023-03-20T07:41:19;96544.84;;;11.43;68.74
12757;BME280;31601;48.042;12.240;2023-03-20T07:43:46;96545.19;;;11.55;68.86
12757;BME280;31601;48.042;12.240;2023-03-20T07:46:12;96542.75;;;11.69;68.64
12757;BME280;31601;48.042;12.240;2023-03-20T07:48:38;96543.91;;;11.81;68.48
12757;BME280;31601;48.042;12.240;2023-03-20T07:51:05;96557.59;;;11.91;68.33
12757;BME280;31601;48.042;12.240;2023-03-20T07:53:33;96549.50;;;12.08;67.87
12757;BME280;31601;48.042;12.240;2023-03-20T07:56:00;96554.38;;;12.11;67.53
12757;BME280;31601;48.042;12.240;2023-03-20T07:58:26;96555.63;;;12.30;67.18
12757;BME280;31601;48.042;12.240;2023-03-20T08:00:55;96556.50;;;12.37;66.71
12757;BME280;31601;48.042;12.240;2023-03-20T08:03:22;96559.31;;;12.57;66.28
12757;BME280;31601;48.042;12.240;2023-03-20T08:05:48;96558.31;;;12.80;65.86
12757;BME280;31601;48.042;12.240;2023-03-20T08:08:15;96562.25;;;12.90;65.36
12757;BME280;31601;48.042;12.240;2023-03-20T08:10:42;96561.06;;;12.93;65.07
12757;BME280;31601;48.042;12.240;2023-03-20T08:13:09;96563.41;;;13.10;64.56
12757;BME280;31601;48.042;12.240;2023-03-20T08:15:35;96558.72;;;13.05;63.99
12757;BME280;31601;48.042;12.240;2023-03-20T08:18:02;96568.66;;;13.10;63.63
12757;BME280;31601;48.042;12.240;2023-03-20T08:20:28;96563.78;;;13.06;63.54
12757;BME280;31601;48.042;12.240;2023-03-20T08:22:55;96574.88;;;13.02;63.53
12757;BME280;31601;48.042;12.240;2023-03-20T08:25:25;96570.19;;;12.97;63.40
12757;BME280;31601;48.042;12.240;2023-03-20T08:27:54;96570.75;;;12.93;63.05
12757;BME280;31601;48.042;12.240;2023-03-20T08:30:21;96564.50;;;12.94;62.96
12757;BME280;31601;48.042;12.240;2023-03-20T08:32:47;96577.03;;;12.27;64.36
12757;BME280;31601;48.042;12.240;2023-03-20T08:35:14;96570.38;;;12.31;64.28
12757;BME280;31601;48.042;12.240;2023-03-20T08:37:40;96568.78;;;12.51;63.99
12757;BME280;31601;48.042;12.240;2023-03-20T08:40:07;96569.94;;;12.64;63.86
12757;BME280;31601;48.042;12.240;2023-03-20T08:42:34;96566.25;;;12.86;63.61
12757;BME280;31601;48.042;12.240;2023-03-20T08:45:02;96568.47;;;13.11;63.09
12757;BME280;31601;48.042;12.240;2023-03-20T08:47:28;96572.28;;;13.30;62.88
12757;BME280;31601;48.042;12.240;2023-03-20T08:49:55;96581.06;;;13.37;62.08
12757;BME280;31601;48.042;12.240;2023-03-20T08:52:22;96575.91;;;13.29;61.90
12757;BME280;31601;48.042;12.240;2023-03-20T08:54:49;96579.16;;;13.31;61.82
12757;BME280;31601;48.042;12.240;2023-03-20T08:57:15;96574.66;;;13.25;61.62
12757;BME280;31601;48.042;12.240;2023-03-20T08:59:41;96581.69;;;13.39;61.75
12757;BME280;31601;48.042;12.240;2023-03-20T09:02:10;96576.50;;;13.53;61.32
12757;BME280;31601;48.042;12.240;2023-03-20T09:04:37;96576.19;;;13.69;61.34
12757;BME280;31601;48.042;12.240;2023-03-20T09:07:03;96581.94;;;13.86;60.60
12757;BME280;31601;48.042;12.240;2023-03-20T09:09:30;96581.63;;;14.03;59.62
12757;BME280;31601;48.042;12.240;2023-03-20T09:11:57;96581.06;;;14.14;59.62
12757;BME280;31601;48.042;12.240;2023-03-20T09:14:24;96580.31;;;14.47;58.71
12757;BME280;31601;48.042;12.240;2023-03-20T09:16:51;96572.47;;;14.60;58.51
12757;BME280;31601;48.042;12.240;2023-03-20T09:19:19;96559.06;;;14.68;58.34
12757;BME280;31601;48.042;12.240;2023-03-20T09:21:45;96561.94;;;14.94;57.60
12757;BME280;31601;48.042;12.240;2023-03-20T09:24:12;96554.63;;;15.09;57.11
12757;BME280;31601;48.042;12.240;2023-03-20T09:26:39;96557.47;;;14.94;56.46
12757;BME280;31601;48.042;12.240;2023-03-20T09:29:05;96558.88;;;15.24;56.27
12757;BME280;31601;48.042;12.240;2023-03-20T09:31:31;96556.41;;;15.55;56.01
12757;BME280;31601;48.042;12.240;2023-03-20T09:33:58;96553.69;;;15.82;55.29
12757;BME280;31601;48.042;12.240;2023-03-20T09:36:26;96550.09;;;16.15;53.64
12757;BME280;31601;48.042;12.240;2023-03-20T09:38:52;96549.41;;;16.26;53.80
12757;BME280;31601;48.042;12.240;2023-03-20T09:41:20;96548.72;;;16.44;53.67
12757;BME280;31601;48.042;12.240;2023-03-20T09:43:58;96548.44;;;16.53;53.21
12757;BME280;31601;48.042;12.240;2023-03-20T09:46:38;96546.94;;;16.70;52.16
12757;BME280;31601;48.042;12.240;2023-03-20T09:49:14;96540.69;;;16.58;51.29
12757;BME280;31601;48.042;12.240;2023-03-20T09:51:47;96539.41;;;16.67;51.42
12757;BME280;31601;48.042;12.240;2023-03-20T09:54:21;96539.44;;;16.60;51.44
12757;BME280;31601;48.042;12.240;2023-03-20T09:56:51;96542.72;;;15.79;52.67
12757;BME280;31601;48.042;12.240;2023-03-20T09:59:19;96543.66;;;15.12;54.69
12757;BME280;31601;48.042;12.240;2023-03-20T10:01:49;96540.00;;;15.20;54.75
12757;BME280;31601;48.042;12.240;2023-03-20T10:04:16;96540.00;;;15.92;53.53
12757;BME280;31601;48.042;12.240;2023-03-20T10:06:42;96538.59;;;16.35;52.30
12757;BME280;31601;48.042;12.240;2023-03-20T10:09:14;96540.94;;;15.52;51.90
12757;BME280;31601;48.042;12.240;2023-03-20T10:11:51;96536.91;;;16.02;52.74
12757;BME280;31601;48.042;12.240;2023-03-20T10:14:27;96541.09;;;15.71;52.30
12757;BME280;31601;48.042;12.240;2023-03-20T10:17:09;96537.75;;;15.96;52.14
12757;BME280;31601;48.042;12.240;2023-03-20T10:19:42;96538.94;;;15.48;53.03
12757;BME280;31601;48.042;12.240;2023-03-20T10:22:15;96543.22;;;15.29;53.78
12757;BME280;31601;48.042;12.240;2023-03-20T10:24:48;96539.00;;;14.88;54.29
12757;BME280;31601;48.042;12.240;2023-03-20T10:27:21;96538.91;;;15.54;54.05
12757;BME280;31601;48.042;12.240;2023-03-20T10:29:55;96527.84;;;15.84;53.22
12757;BME280;31601;48.042;12.240;2023-03-20T10:32:31;96528.97;;;16.02;52.44
12757;BME280;31601;48.042;12.240;2023-03-20T10:35:11;96524.94;;;15.92;52.86
12757;BME280;31601;48.042;12.240;2023-03-20T10:37:48;96524.38;;;16.29;51.59
12757;BME280;31601;48.042;12.240;2023-03-20T10:40:26;96516.88;;;16.51;50.57
12757;BME280;31601;48.042;12.240;2023-03-20T10:42:56;96516.16;;;16.69;49.99
12757;BME280;31601;48.042;12.240;2023-03-20T10:45:37;96512.19;;;16.21;49.24
12757;BME280;31601;48.042;12.240;2023-03-20T10:48:11;96503.97;;;16.29;50.25
12757;BME280;31601;48.042;12.240;2023-03-20T10:50:43;96508.91;;;15.02;53.71
12757;BME280;31601;48.042;12.240;2023-03-20T10:53:20;96515.91;;;15.62;53.85
12757;BME280;31601;48.042;12.240;2023-03-20T10:55:50;96511.19;;;16.22;51.57
12757;BME280;31601;48.042;12.240;2023-03-20T10:58:20;96506.06;;;14.83;52.99
12757;BME280;31601;48.042;12.240;2023-03-20T11:00:47;96506.66;;;15.12;53.58
12757;BME280;31601;48.042;12.240;2023-03-20T11:03:20;96503.34;;;15.44;52.89
12757;BME280;31601;48.042;12.240;2023-03-20T11:05:52;96498.94;;;14.77;53.19
12757;BME280;31601;48.042;12.240;2023-03-20T11:08:21;96509.91;;;15.01;53.25
12757;BME280;31601;48.042;12.240;2023-03-20T11:10:57;96501.72;;;15.36;53.72
12757;BME280;31601;48.042;12.240;2023-03-20T11:13:26;96502.84;;;15.80;51.71
12757;BME280;31601;48.042;12.240;2023-03-20T11:15:54;96504.97;;;15.38;52.23
12757;BME280;31601;48.042;12.240;2023-03-20T11:18:23;96503.34;;;14.17;53.88
12757;BME280;31601;48.042;12.240;2023-03-20T11:20:53;96504.41;;;15.29;52.65
12757;BME280;31601;48.042;12.240;2023-03-20T11:23:25;96493.22;;;15.86;50.95
12757;BME280;31601;48.042;12.240;2023-03-20T11:25:56;96495.41;;;15.96;49.39
12757;BME280;31601;48.042;12.240;2023-03-20T11:28:29;96493.44;;;15.84;48.41
12757;BME280;31601;48.042;12.240;2023-03-20T11:30:58;96494.06;;;15.01;50.12
12757;BME280;31601;48.042;12.240;2023-03-20T11:33:26;96499.56;;;14.79;52.61
12757;BME280;31601;48.042;12.240;2023-03-20T11:35:55;96493.66;;;14.77;55.29
12757;BME280;31601;48.042;12.240;2023-03-20T11:38:22;96491.22;;;14.96;53.37
12757;BME280;31601;48.042;12.240;2023-03-20T11:40:50;96487.84;;;15.47;51.31
12757;BME280;31601;48.042;12.240;2023-03-20T11:43:20;96484.13;;;15.68;52.31
12757;BME280;31601;48.042;12.240;2023-03-20T11:45:49;96489.22;;;16.47;50.56
12757;BME280;31601;48.042;12.240;2023-03-20T11:48:18;96486.44;;;16.67;48.41
12757;BME280;31601;48.042;12.240;2023-03-20T11:50:47;96480.56;;;16.90;47.76
12757;BME280;31601;48.042;12.240;2023-03-20T11:53:20;96485.25;;;15.27;50.56
12757;BME280;31601;48.042;12.240;2023-03-20T11:56:03;96483.69;;;14.99;52.63
12757;BME280;31601;48.042;12.240;2023-03-20T11:58:32;96477.03;;;14.77;50.31
12757;BME280;31601;48.042;12.240;2023-03-20T12:01:00;96474.97;;;14.65;51.19
12757;BME280;31601;48.042;12.240;2023-03-20T12:03:39;96470.47;;;14.53;51.41
12757;BME280;31601;48.042;12.240;2023-03-20T12:06:12;96472.13;;;14.67;51.19
12757;BME280;31601;48.042;12.240;2023-03-20T12:08:40;96477.97;;;14.29;51.60
12757;BME280;31601;48.042;12.240;2023-03-20T12:11:23;96475.47;;;13.94;52.17
12757;BME280;31601;48.042;12.240;2023-03-20T12:13:57;96475.16;;;13.62;52.54
12757;BME280;31601;48.042;12.240;2023-03-20T12:16:26;96468.34;;;13.94;53.62
12757;BME280;31601;48.042;12.240;2023-03-20T12:18:58;96461.16;;;14.70;52.98
12757;BME280;31601;48.042;12.240;2023-03-20T12:21:31;96460.13;;;14.51;51.86
12757;BME280;31601;48.042;12.240;2023-03-20T12:24:03;96460.75;;;14.86;49.94
12757;BME280;31601;48.042;12.240;2023-03-20T12:26:35;96464.00;;;14.89;50.41
12757;BME280;31601;48.042;12.240;2023-03-20T12:29:08;96462.16;;;15.09;50.19
12757;BME280;31601;48.042;12.240;2023-03-20T12:31:39;96458.69;;;14.42;50.29
12757;BME280;31601;48.042;12.240;2023-03-20T12:34:11;96457.47;;;14.98;47.44
12757;BME280;31601;48.042;12.240;2023-03-20T12:36:42;96455.34;;;15.33;49.57
12757;BME280;31601;48.042;12.240;2023-03-20T12:39:11;96457.91;;;15.01;48.20
12757;BME280;31601;48.042;12.240;2023-03-20T12:41:48;96455.75;;;15.44;47.84
12757;BME280;31601;48.042;12.240;2023-03-20T12:44:31;96460.09;;;15.25;47.73
12757;BME280;31601;48.042;12.240;2023-03-20T12:47:12;96457.63;;;15.16;48.28
12757;BME280;31601;48.042;12.240;2023-03-20T12:49:46;96458.19;;;15.45;47.81
12757;BME280;31601;48.042;12.240;2023-03-20T12:52:24;96454.75;;;15.31;47.52
12757;BME280;31601;48.042;12.240;2023-03-20T12:55:09;96452.06;;;15.51;46.96
12757;BME280;31601;48.042;12.240;2023-03-20T12:57:45;96453.81;;;15.12;48.65
12757;BME280;31601;48.042;12.240;2023-03-20T13:00:20;96459.84;;;15.33;49.28
12757;BME280;31601;48.042;12.240;2023-03-20T13:02:57;96462.03;;;15.49;48.91